createdAt,value
2023-04-20T00:00:42.399Z,0.60
2023-04-20T00:04:24.317Z,0.80
2023-04-20T00:08:06.220Z,0.50
2023-04-20T00:11:48.553Z,0.60
2023-04-20T00:15:30.573Z,0.50
2023-04-20T00:19:12.902Z,0.60
2023-04-20T00:22:55.023Z,0.67
2023-04-20T00:26:36.873Z,0.70
2023-04-20T00:30:18.690Z,0.50
2023-04-20T00:34:00.516Z,0.63
2023-04-20T00:37:42.343Z,0.90
2023-04-20T00:41:24.295Z,0.57
2023-04-20T00:45:06.638Z,0.60
2023-04-20T00:48:51.190Z,0.50
2023-04-20T00:52:33.478Z,0.50
2023-04-20T00:56:16.577Z,0.60
2023-04-20T00:59:58.656Z,0.60
2023-04-20T01:03:40.684Z,0.50
2023-04-20T01:07:23.050Z,0.60
2023-04-20T01:11:04.825Z,0.60
2023-04-20T01:14:46.588Z,0.57
2023-04-20T01:18:28.343Z,0.63
2023-04-20T01:22:16.882Z,0.50
2023-04-20T01:26:00.052Z,0.37
2023-04-20T01:29:42.255Z,0.80
2023-04-20T01:33:24.222Z,0.40
2023-04-20T01:37:08.991Z,0.70
2023-04-20T01:40:51.175Z,0.50
2023-04-20T01:44:32.939Z,0.60
2023-04-20T01:48:14.700Z,0.40
2023-04-20T01:51:57.105Z,0.50
2023-04-20T01:55:39.354Z,0.50
2023-04-20T01:59:21.130Z,0.40
2023-04-20T02:03:03.288Z,0.57
2023-04-20T02:06:45.478Z,0.50
2023-04-20T02:10:27.353Z,0.47
2023-04-20T02:14:09.149Z,0.53
2023-04-20T02:17:52.377Z,0.40
2023-04-20T02:21:34.569Z,0.50
2023-04-20T02:25:16.413Z,0.50
2023-04-20T02:28:58.217Z,0.50
2023-04-20T02:32:40.475Z,0.50
2023-04-20T02:36:22.368Z,0.60
2023-04-20T02:40:05.060Z,0.60
2023-04-20T02:43:46.858Z,0.40
2023-04-20T02:47:28.726Z,0.40
2023-04-20T02:51:10.553Z,0.40
2023-04-20T02:54:52.338Z,0.70
2023-04-20T02:58:34.139Z,0.50
2023-04-20T03:02:16.273Z,0.57
2023-04-20T03:05:58.601Z,0.50
2023-04-20T03:09:40.484Z,0.50
2023-04-20T03:13:22.362Z,0.50
2023-04-20T03:17:04.366Z,0.50
2023-04-20T03:20:46.175Z,0.43
2023-04-20T03:24:28.100Z,0.50
2023-04-20T03:28:09.964Z,0.47
2023-04-20T03:31:51.822Z,0.50
2023-04-20T03:35:33.630Z,0.60
2023-04-20T03:39:15.864Z,0.50
2023-04-20T03:42:57.842Z,0.57
2023-04-20T03:46:39.584Z,0.63
2023-04-20T03:50:21.427Z,0.60
2023-04-20T03:54:03.312Z,0.57
2023-04-20T03:57:45.621Z,0.70
2023-04-20T04:01:27.646Z,0.70
2023-04-20T04:05:09.598Z,0.70
2023-04-20T04:08:51.488Z,0.87
2023-04-20T04:12:33.281Z,0.70
2023-04-20T04:16:15.216Z,0.67
2023-04-20T04:19:56.986Z,0.70
2023-04-20T04:23:38.872Z,0.77
2023-04-20T04:27:22.398Z,0.80
2023-04-20T04:31:06.140Z,0.50
2023-04-20T04:34:49.018Z,0.93
2023-04-20T04:38:33.360Z,0.90
2023-04-20T04:42:15.174Z,0.60
2023-04-20T04:45:59.638Z,0.60
2023-04-20T04:49:42.752Z,0.87
2023-04-20T04:53:24.577Z,1.40
2023-04-20T04:57:06.762Z,0.90
2023-04-20T05:00:48.909Z,0.90
2023-04-20T05:04:31.137Z,0.70
2023-04-20T05:08:12.965Z,0.83
2023-04-20T05:11:54.793Z,0.70
2023-04-20T05:15:36.717Z,0.60
2023-04-20T05:19:18.816Z,0.70
2023-04-20T05:23:00.714Z,0.77
2023-04-20T05:26:42.554Z,0.80
2023-04-20T05:30:24.480Z,1.00
2023-04-20T05:34:06.393Z,1.03
2023-04-20T05:37:48.530Z,0.70
2023-04-20T05:41:30.567Z,1.20
2023-04-20T05:45:12.718Z,0.90
2023-04-20T05:48:54.743Z,0.87
2023-04-20T05:52:36.559Z,1.30
2023-04-20T05:56:18.589Z,1.00
2023-04-20T06:00:00.540Z,0.93
2023-04-20T06:03:42.660Z,0.80
2023-04-20T06:07:24.590Z,0.83
2023-04-20T06:11:06.516Z,0.80
2023-04-20T06:14:48.318Z,0.90
2023-04-20T06:18:30.298Z,0.97
2023-04-20T06:22:12.299Z,0.67
2023-04-20T06:25:54.096Z,1.00
2023-04-20T06:29:36.130Z,1.03
2023-04-20T06:33:18.019Z,1.17
2023-04-20T06:36:59.815Z,0.97
2023-04-20T06:40:41.560Z,1.00
2023-04-20T06:44:23.420Z,0.90
2023-04-20T06:48:05.770Z,1.00
2023-04-20T06:51:47.622Z,0.90
2023-04-20T06:55:29.498Z,1.17
2023-04-20T06:59:11.319Z,1.00
2023-04-20T07:02:53.213Z,1.03
2023-04-20T07:06:35.198Z,1.00
2023-04-20T07:10:17.598Z,1.10
2023-04-20T07:14:00.522Z,1.07
2023-04-20T07:17:42.632Z,1.10
2023-04-20T07:21:24.483Z,1.40
2023-04-20T07:25:08.583Z,1.10
2023-04-20T07:28:51.411Z,1.10
2023-04-20T07:32:35.108Z,0.90
2023-04-20T07:36:17.073Z,0.93
2023-04-20T07:39:58.856Z,0.90
2023-04-20T07:43:40.713Z,1.20
2023-04-20T07:47:22.969Z,0.87
2023-04-20T07:51:05.146Z,1.00
2023-04-20T07:54:47.212Z,1.03
2023-04-20T07:58:28.983Z,0.90
2023-04-20T08:02:11.129Z,0.90
2023-04-20T08:05:53.282Z,1.47
2023-04-20T08:09:35.263Z,0.90
2023-04-20T08:13:17.072Z,1.00
2023-04-20T08:17:00.240Z,0.90
2023-04-20T08:20:42.179Z,0.90
2023-04-20T08:24:24.127Z,1.00
2023-04-20T08:28:11.757Z,1.10
2023-04-20T08:31:54.212Z,0.90
2023-04-20T08:35:36.237Z,1.23
2023-04-20T08:39:24.398Z,0.80
2023-04-20T08:43:06.415Z,1.00
2023-04-20T08:46:49.566Z,1.00
2023-04-20T08:50:32.140Z,0.87
2023-04-20T08:54:14.938Z,0.80
2023-04-20T08:57:56.861Z,1.10
2023-04-20T09:01:39.602Z,0.70
2023-04-20T09:05:31.093Z,0.70
2023-04-20T09:09:13.184Z,0.90
2023-04-20T09:12:55.020Z,1.00
2023-04-20T09:16:39.564Z,0.80
2023-04-20T09:20:34.799Z,0.70
2023-04-20T09:24:17.078Z,0.80
2023-04-20T09:28:01.373Z,0.90
2023-04-20T09:31:43.232Z,0.90
2023-04-20T09:35:25.225Z,0.90
2023-04-20T09:39:13.523Z,0.90
2023-04-20T09:42:58.012Z,0.80
2023-04-20T09:46:41.795Z,0.70
2023-04-20T09:50:31.908Z,0.80
2023-04-20T09:54:20.806Z,0.80
2023-04-20T09:58:04.227Z,0.70
2023-04-20T10:01:46.315Z,0.70
2023-04-20T10:05:39.786Z,0.60
2023-04-20T10:09:26.317Z,0.50
2023-04-20T10:13:08.312Z,0.60
2023-04-20T10:17:05.896Z,0.93
2023-04-20T10:20:48.071Z,0.60
2023-04-20T10:24:30.736Z,0.83
2023-04-20T10:28:12.710Z,0.90
2023-04-20T10:31:55.579Z,0.77
2023-04-20T10:35:52.167Z,0.60
2023-04-20T10:39:34.250Z,0.60
2023-04-20T10:43:21.455Z,0.80
2023-04-20T10:47:03.347Z,0.70
2023-04-20T10:50:45.425Z,0.80
2023-04-20T10:54:28.950Z,0.80
2023-04-20T10:58:21.548Z,0.80
2023-04-20T11:02:12.902Z,0.80
2023-04-20T11:05:54.761Z,0.80
2023-04-20T11:09:38.438Z,1.00
2023-04-20T11:13:22.412Z,0.90
2023-04-20T11:17:05.439Z,0.90
2023-04-20T11:20:55.379Z,0.90
2023-04-20T11:24:38.184Z,1.00
2023-04-20T11:28:20.586Z,0.90
2023-04-20T11:32:08.325Z,1.00
2023-04-20T11:35:50.281Z,0.93
2023-04-20T11:39:32.315Z,0.80
2023-04-20T11:43:14.290Z,0.70
2023-04-20T11:47:00.136Z,0.70
2023-04-20T11:50:42.642Z,1.10
2023-04-20T11:54:25.322Z,0.70
2023-04-20T11:58:08.165Z,1.00
2023-04-20T12:01:50.039Z,0.90
2023-04-20T12:05:31.892Z,0.80
2023-04-20T12:09:13.814Z,1.00
2023-04-20T12:12:56.883Z,0.90
2023-04-20T12:16:38.647Z,0.97
2023-04-20T12:20:20.557Z,0.90
2023-04-20T12:24:02.487Z,0.70
2023-04-20T12:27:44.365Z,0.80
2023-04-20T12:31:26.755Z,0.73
2023-04-20T12:35:09.562Z,1.03
2023-04-20T12:38:52.548Z,0.80
2023-04-20T12:42:34.358Z,0.93
2023-04-20T12:46:16.378Z,0.97
2023-04-20T12:49:58.165Z,0.90
2023-04-20T12:53:40.254Z,0.93
2023-04-20T12:57:22.207Z,0.80
2023-04-20T13:01:04.319Z,0.93
2023-04-20T13:04:47.019Z,0.70
2023-04-20T13:08:28.881Z,0.80
2023-04-20T13:12:10.656Z,0.90
2023-04-20T13:15:54.380Z,0.83
2023-04-20T13:19:36.529Z,0.97
2023-04-20T13:23:18.755Z,0.90
2023-04-20T13:27:01.173Z,0.93
2023-04-20T13:30:43.182Z,0.97
2023-04-20T13:34:24.959Z,0.83
2023-04-20T13:38:06.851Z,0.90
2023-04-20T13:41:51.732Z,0.87
2023-04-20T13:45:33.570Z,0.80
2023-04-20T13:49:16.910Z,0.80
2023-04-20T13:52:58.707Z,0.57
2023-04-20T13:56:40.518Z,0.90
2023-04-20T14:00:23.690Z,0.73
2023-04-20T14:04:05.717Z,0.90
2023-04-20T14:07:47.741Z,0.93
2023-04-20T14:11:29.542Z,1.03
2023-04-20T14:15:12.153Z,0.80
2023-04-20T14:18:54.021Z,0.80
2023-04-20T14:22:37.342Z,1.00
2023-04-20T14:26:20.549Z,0.80
2023-04-20T14:30:02.720Z,0.90
2023-04-20T14:33:44.892Z,0.80
2023-04-20T14:37:27.355Z,0.90
2023-04-20T14:41:09.255Z,0.80
2023-04-20T14:44:51.594Z,0.77
2023-04-20T14:48:34.068Z,0.73
2023-04-20T14:52:15.863Z,0.80
2023-04-20T14:55:57.657Z,0.90
2023-04-20T14:59:41.412Z,0.80
2023-04-20T15:03:23.596Z,1.00
2023-04-20T15:07:06.073Z,1.10
2023-04-20T15:10:47.923Z,0.90
2023-04-20T15:14:29.891Z,0.67
2023-04-20T15:18:11.754Z,1.00
2023-04-20T15:21:53.518Z,0.90
2023-04-20T15:25:35.390Z,0.80
2023-04-20T15:29:17.187Z,0.80
2023-04-20T15:33:05.227Z,0.90
2023-04-20T15:36:47.690Z,0.80
2023-04-20T15:40:29.805Z,0.70
2023-04-20T15:44:12.820Z,0.83
2023-04-20T15:47:55.944Z,0.60
2023-04-20T15:51:38.390Z,0.80
2023-04-20T15:55:20.379Z,0.90
2023-04-20T15:59:02.215Z,0.60
2023-04-20T16:02:44.305Z,0.80
2023-04-20T16:06:26.437Z,0.60
2023-04-20T16:10:08.862Z,0.67
2023-04-20T16:13:50.764Z,0.70
2023-04-20T16:17:32.772Z,0.60
2023-04-20T16:21:15.042Z,0.60
2023-04-20T16:24:56.938Z,0.63
2023-04-20T16:28:38.738Z,0.63
2023-04-20T16:32:20.919Z,0.63
2023-04-20T16:36:03.188Z,0.67
2023-04-20T16:39:45.138Z,0.60
2023-04-20T16:43:27.019Z,0.70
2023-04-20T16:47:09.082Z,0.60
2023-04-20T16:50:51.215Z,0.50
2023-04-20T16:54:32.976Z,0.50
2023-04-20T16:58:14.706Z,0.50
2023-04-20T17:01:56.575Z,0.80
2023-04-20T17:05:41.643Z,0.60
2023-04-20T17:09:24.095Z,0.50
2023-04-20T17:13:05.931Z,0.50
2023-04-20T17:16:47.807Z,0.57
2023-04-20T17:20:29.837Z,0.40
2023-04-20T17:24:11.637Z,0.40
2023-04-20T17:27:53.392Z,0.50
2023-04-20T17:31:35.451Z,0.60
2023-04-20T17:35:17.449Z,0.50
2023-04-20T17:38:59.360Z,0.40
2023-04-20T17:42:41.188Z,0.50
2023-04-20T17:46:23.486Z,0.60
2023-04-20T17:50:06.070Z,0.50
2023-04-20T17:53:47.869Z,0.37
2023-04-20T17:57:29.829Z,0.50
2023-04-20T18:01:11.682Z,0.40
2023-04-20T18:04:55.383Z,0.47
2023-04-20T18:08:37.284Z,0.50
2023-04-20T18:12:19.187Z,0.40
2023-04-20T18:16:06.630Z,0.50
2023-04-20T18:19:48.758Z,0.50
2023-04-20T18:23:30.640Z,0.50
2023-04-20T18:27:12.395Z,0.60
2023-04-20T18:30:56.083Z,0.60
2023-04-20T18:34:39.714Z,0.87
2023-04-20T18:38:22.627Z,0.50
2023-04-20T18:42:04.458Z,0.60
2023-04-20T18:45:46.331Z,0.80
2023-04-20T18:49:28.843Z,0.70
2023-04-20T18:53:10.665Z,0.70
2023-04-20T18:56:54.720Z,0.90
2023-04-20T19:00:36.491Z,0.60
2023-04-20T19:04:18.643Z,0.77
2023-04-20T19:08:00.891Z,0.80
2023-04-20T19:11:43.195Z,0.87
2023-04-20T19:15:28.098Z,0.70
2023-04-20T19:19:10.228Z,0.67
2023-04-20T19:22:52.700Z,0.80
2023-04-20T19:26:34.476Z,0.80
2023-04-20T19:30:16.520Z,0.83
2023-04-20T19:33:59.852Z,0.70
2023-04-20T19:37:41.625Z,0.80
2023-04-20T19:41:23.541Z,0.90
2023-04-20T19:45:05.895Z,0.80
2023-04-20T19:48:47.707Z,0.90
2023-04-20T19:52:29.502Z,0.80
2023-04-20T19:56:11.561Z,0.90
2023-04-20T19:59:53.376Z,0.97
2023-04-20T20:03:35.448Z,0.70
2023-04-20T20:07:17.996Z,1.03
2023-04-20T20:10:59.928Z,0.90
2023-04-20T20:14:41.787Z,0.90
2023-04-20T20:18:24.329Z,0.90
2023-04-20T20:22:06.067Z,0.63
2023-04-20T20:25:47.888Z,1.03
2023-04-20T20:29:29.837Z,0.80
2023-04-20T20:33:12.244Z,0.97
2023-04-20T20:36:54.073Z,0.93
2023-04-20T20:40:36.146Z,0.70
2023-04-20T20:44:18.675Z,1.00
2023-04-20T20:48:01.274Z,0.80
2023-04-20T20:51:43.178Z,0.80
2023-04-20T20:55:25.003Z,0.70
2023-04-20T20:59:06.749Z,0.70
2023-04-20T21:03:12.978Z,0.80
2023-04-20T21:07:32.193Z,0.63
2023-04-20T21:11:56.515Z,0.80
2023-04-20T21:15:38.239Z,0.70
2023-04-20T21:19:20.428Z,0.60
2023-04-20T21:23:02.532Z,0.80
2023-04-20T21:26:44.505Z,0.70
2023-04-20T21:30:28.212Z,0.60
2023-04-20T21:34:10.365Z,1.10
2023-04-20T21:37:52.307Z,1.17
2023-04-20T21:41:34.046Z,0.70
2023-04-20T21:45:16.022Z,0.80
2023-04-20T21:48:57.857Z,0.90
2023-04-20T21:52:39.632Z,0.70
2023-04-20T21:56:21.530Z,0.80
2023-04-20T22:00:04.211Z,0.60
2023-04-20T22:03:47.528Z,0.83
2023-04-20T22:07:30.400Z,0.60
2023-04-20T22:11:12.337Z,0.80
2023-04-20T22:14:54.202Z,0.73
2023-04-20T22:18:36.079Z,0.60
2023-04-20T22:22:17.900Z,0.70
2023-04-20T22:26:00.546Z,0.70
2023-04-20T22:29:42.372Z,0.63
2023-04-20T22:33:24.866Z,0.70
2023-04-20T22:37:08.676Z,0.70
2023-04-20T22:40:50.501Z,0.67
2023-04-20T22:44:32.404Z,0.60
2023-04-20T22:48:14.203Z,0.60
2023-04-20T22:51:58.749Z,0.70
2023-04-20T22:55:41.288Z,0.40
2023-04-20T22:59:23.201Z,0.63
2023-04-20T23:03:05.124Z,0.50
2023-04-20T23:06:47.234Z,0.70
2023-04-20T23:10:29.510Z,0.60
2023-04-20T23:14:11.510Z,0.60
2023-04-20T23:17:53.494Z,0.50
2023-04-20T23:21:35.449Z,0.50
2023-04-20T23:25:17.412Z,0.60
2023-04-20T23:29:00.391Z,0.50
2023-04-20T23:32:44.316Z,0.43
2023-04-20T23:36:26.410Z,0.63
2023-04-20T23:40:10.137Z,0.77
2023-04-20T23:43:52.039Z,0.50
2023-04-20T23:47:33.903Z,0.80
2023-04-20T23:51:15.801Z,0.60
2023-04-20T23:54:58.875Z,0.60
2023-04-20T23:58:40.774Z,0.60
